Time;durP1;ratioP1;P1;durP2;ratioP2;P2;SDS_P1;SDS_P2;PMS_P1;PMS_P2;Temp;Humidity;BMP_temperature;BMP_pressure;BME280_temperature;BME280_humidity;BME280_pressure;Samples;Min_cycle;Max_cycle;Signal;HPM_P1;HPM_P2
2022/01/06 00:01:37;;;;;;;12.90;9.00;;;;;;;1.11;78.87;96764.64;109453;1276;136439;-58
2022/01/06 00:04:10;;;;;;;11.60;7.80;;;;;;;1.14;78.48;96767.29;109582;1276;22427;-58
2022/01/06 00:06:43;;;;;;;14.00;9.00;;;;;;;1.17;78.36;96766.08;109565;1276;22977;-59
2022/01/06 00:09:15;;;;;;;12.60;8.90;;;;;;;1.19;78.80;96767.61;109572;1275;22506;-59
2022/01/06 00:11:48;;;;;;;12.20;9.70;;;;;;;1.19;78.32;96764.59;109496;1277;22498;-59
2022/01/06 00:14:38;;;;;;;13.60;10.10;;;;;;;1.19;78.52;96765.65;109566;1276;22511;-59
2022/01/06 00:17:35;;;;;;;13.30;10.30;;;;;;;1.18;78.71;96768.57;109562;1275;22420;-59
2022/01/06 00:25:57;;;;;;;12.00;7.90;;;;;;;1.15;78.18;96764.22;109597;1275;22552;-58
2022/01/06 00:28:26;;;;;;;14.00;9.10;;;;;;;1.17;77.89;96764.59;109571;1276;22438;-58
2022/01/06 00:30:55;;;;;;;13.80;9.60;;;;;;;1.19;77.89;96768.46;109566;1275;22460;-59
2022/01/06 00:33:30;;;;;;;15.00;10.20;;;;;;;1.20;78.12;96768.56;109438;1276;138427;-59
2022/01/06 00:36:02;;;;;;;12.40;8.80;;;;;;;1.20;78.35;96767.34;109566;1275;23043;-58
2022/01/06 00:38:30;;;;;;;15.10;10.90;;;;;;;1.18;78.16;96774.45;109565;1275;22966;-59
2022/01/06 00:41:03;;;;;;;14.00;9.70;;;;;;;1.18;78.36;96774.35;109594;1276;23192;-58
2022/01/06 00:43:37;;;;;;;13.10;9.50;;;;;;;1.16;77.85;96774.66;109568;1275;23078;-58
2022/01/06 00:46:18;;;;;;;12.30;9.40;;;;;;;1.15;77.55;96769.32;109586;1275;23166;-58
2022/01/06 00:48:51;;;;;;;12.60;10.30;;;;;;;1.18;77.69;96778.23;109583;1275;22445;-60
2022/01/06 00:51:24;;;;;;;16.90;11.10;;;;;;;1.20;78.09;96783.85;109588;1275;22432;-58
2022/01/06 00:53:53;;;;;;;13.40;9.70;;;;;;;1.20;78.01;96785.23;109562;1275;22980;-60
2022/01/06 00:56:25;;;;;;;13.60;9.60;;;;;;;1.19;78.20;96786.45;109578;1275;23068;-59
2022/01/06 00:58:58;;;;;;;14.70;10.20;;;;;;;1.18;78.18;96786.45;109575;1275;23232;-60
2022/01/06 01:01:32;;;;;;;15.10;10.20;;;;;;;1.16;78.09;96775.30;109588;1275;22542;-58
2022/01/06 01:04:06;;;;;;;14.10;10.00;;;;;;;1.16;77.46;96772.92;109574;1276;22470;-61
2022/01/06 01:06:34;;;;;;;12.20;8.80;;;;;;;1.18;77.76;96780.67;109582;1276;22517;-59
2022/01/06 01:09:02;;;;;;;14.20;9.70;;;;;;;1.19;77.19;96784.65;109567;1275;23216;-59
2022/01/06 01:11:30;;;;;;;11.70;9.70;;;;;;;1.17;77.34;96779.13;109594;1275;22442;-60
2022/01/06 01:14:07;;;;;;;12.50;9.20;;;;;;;1.14;77.45;96775.09;109564;1275;22466;-61
2022/01/06 01:16:35;;;;;;;14.30;10.10;;;;;;;1.12;77.89;96771.11;109582;1275;22452;-60
2022/01/06 01:19:10;;;;;;;11.60;9.40;;;;;;;1.10;77.60;96773.02;109575;1276;22623;-59
2022/01/06 01:21:38;;;;;;;12.40;9.40;;;;;;;1.10;77.61;96770.96;109593;1275;22603;-60
2022/01/06 01:24:07;;;;;;;12.40;9.20;;;;;;;1.11;77.61;96762.94;109582;1275;23183;-60
2022/01/06 01:26:34;;;;;;;11.50;9.50;;;;;;;1.12;77.11;96760.34;109570;1275;22477;-59
2022/01/06 01:29:03;;;;;;;12.90;9.70;;;;;;;1.12;77.57;96764.08;109571;1275;22574;-60
2022/01/06 01:31:36;;;;;;;11.10;8.40;;;;;;;1.11;77.16;96764.21;109587;1276;22435;-60
2022/01/06 01:34:09;;;;;;;12.50;8.60;;;;;;;1.09;77.34;96763.27;109583;1276;23200;-59
2022/01/06 01:36:37;;;;;;;12.70;8.30;;;;;;;1.06;77.35;96765.06;109581;1275;22541;-59
2022/01/06 01:39:05;;;;;;;11.30;8.10;;;;;;;1.06;77.53;96765.54;109579;1275;22502;-59
2022/01/06 01:41:33;;;;;;;12.60;8.90;;;;;;;1.08;77.61;96763.52;109570;1276;22341;-60
2022/01/06 01:44:05;;;;;;;11.90;8.50;;;;;;;1.08;77.62;96762.63;109588;1275;22480;-60
2022/01/06 01:46:42;;;;;;;11.60;9.00;;;;;;;1.07;77.23;96767.92;109575;1277;22530;-59
2022/01/06 01:49:27;;;;;;;10.90;8.10;;;;;;;1.04;77.38;96767.66;109565;1276;22912;-59
2022/01/06 01:51:56;;;;;;;10.50;8.50;;;;;;;1.02;77.60;96772.33;109580;1275;22464;-59
2022/01/06 01:54:24;;;;;;;11.30;8.10;;;;;;;0.99;77.36;96775.68;109599;1275;23201;-59
2022/01/06 01:56:52;;;;;;;10.70;7.90;;;;;;;0.99;77.32;96781.55;109605;1276;23056;-60
2022/01/06 01:59:20;;;;;;;11.00;8.70;;;;;;;1.02;77.28;96776.46;109564;1275;22550;-60
2022/01/06 02:01:50;;;;;;;10.90;7.60;;;;;;;1.02;77.23;96776.52;109575;1276;22625;-59
2022/01/06 02:04:18;;;;;;;9.80;7.80;;;;;;;1.03;77.61;96782.20;109591;1275;23213;-59
2022/01/06 02:06:46;;;;;;;13.70;8.70;;;;;;;1.03;77.34;96791.75;109573;1275;22556;-59
2022/01/06 02:09:14;;;;;;;12.70;8.80;;;;;;;1.03;77.67;96791.80;109572;1276;23651;-59
2022/01/06 02:11:42;;;;;;;10.20;8.40;;;;;;;1.03;77.62;96790.37;109602;1277;22459;-60
2022/01/06 02:14:10;;;;;;;10.60;7.40;;;;;;;1.04;77.30;96794.30;109573;1276;22595;-59
2022/01/06 02:16:38;;;;;;;9.20;7.00;;;;;;;1.07;77.53;96801.67;109582;1277;22451;-59
2022/01/06 02:19:06;;;;;;;11.40;7.70;;;;;;;1.10;77.43;96803.53;109561;1277;22485;-58
2022/01/06 02:21:40;;;;;;;10.80;7.80;;;;;;;1.11;77.13;96805.87;109562;1276;22450;-59
2022/01/06 02:24:08;;;;;;;12.50;8.50;;;;;;;1.09;77.16;96806.82;109567;1275;22492;-59
2022/01/06 02:26:36;;;;;;;9.40;6.80;;;;;;;1.09;77.22;96809.64;109589;1276;22247;-59
2022/01/06 02:29:04;;;;;;;10.00;7.60;;;;;;;1.08;77.34;96817.01;109250;1275;443167;-59
2022/01/06 02:31:43;;;;;;;11.90;7.60;;;;;;;1.09;77.20;96816.70;109588;1275;22575;-60
2022/01/06 02:34:11;;;;;;;10.50;8.00;;;;;;;1.13;77.24;96812.98;109477;1277;22482;-59
2022/01/06 02:36:39;;;;;;;11.40;7.40;;;;;;;1.15;77.03;96805.65;109585;1276;22443;-59
2022/01/06 02:39:09;;;;;;;12.90;8.50;;;;;;;1.15;77.04;96811.61;109568;1276;22501;-60
2022/01/06 02:41:37;;;;;;;11.80;9.00;;;;;;;1.16;77.35;96811.82;109580;1275;22462;-59
2022/01/06 02:44:05;;;;;;;9.10;7.60;;;;;;;1.16;77.33;96815.31;109542;1275;22556;-59
2022/01/06 02:46:39;;;;;;;12.40;7.40;;;;;;;1.16;76.88;96817.71;109581;1276;22460;-60
2022/01/06 02:49:10;;;;;;;13.80;8.00;;;;;;;1.17;76.99;96821.30;109563;1275;22580;-60
2022/01/06 02:51:40;;;;;;;11.60;8.10;;;;;;;1.20;76.94;96816.23;109564;1276;22569;-60
2022/01/06 02:54:08;;;;;;;11.00;8.50;;;;;;;1.22;76.92;96814.26;109585;1276;22465;-59
2022/01/06 02:56:38;;;;;;;12.10;8.10;;;;;;;1.24;77.25;96805.83;109595;1276;22550;-58
2022/01/06 02:59:06;;;;;;;9.50;8.00;;;;;;;1.25;76.92;96812.61;109574;1276;22500;-59
2022/01/06 03:01:39;;;;;;;11.30;8.10;;;;;;;1.23;77.07;96808.21;109600;1275;22461;-59
2022/01/06 03:04:08;;;;;;;10.70;7.60;;;;;;;1.22;76.97;96808.85;109584;1276;22434;-59
2022/01/06 03:06:36;;;;;;;9.70;7.20;;;;;;;1.23;76.76;96810.77;109582;1276;22473;-58
2022/01/06 03:09:05;;;;;;;10.60;7.90;;;;;;;1.27;77.11;96806.41;109525;1276;22506;-59
2022/01/06 03:11:33;;;;;;;11.40;8.20;;;;;;;1.29;77.00;96807.46;109609;1276;22538;-59
2022/01/06 03:14:02;;;;;;;11.50;8.10;;;;;;;1.29;77.16;96808.36;109575;1275;23328;-59
2022/01/06 03:16:29;;;;;;;10.80;8.70;;;;;;;1.29;77.04;96807.30;109587;1275;22458;-59
2022/01/06 03:18:57;;;;;;;12.20;9.00;;;;;;;1.28;77.13;96804.23;109576;1275;22505;-58
2022/01/06 03:21:25;;;;;;;9.60;7.90;;;;;;;1.26;77.25;96797.86;109577;1275;22460;-59
2022/01/06 03:23:54;;;;;;;10.30;7.80;;;;;;;1.27;77.02;96800.26;109594;1275;22372;-59
2022/01/06 03:26:21;;;;;;;10.10;7.80;;;;;;;1.31;76.75;96804.65;109513;1276;22424;-59
2022/01/06 03:28:50;;;;;;;11.30;8.90;;;;;;;1.34;76.96;96804.81;109604;1275;23100;-58
2022/01/06 03:31:18;;;;;;;10.80;8.30;;;;;;;1.34;77.14;96806.46;109569;1277;22492;-59
2022/01/06 03:33:46;;;;;;;12.00;9.00;;;;;;;1.35;76.99;96815.21;109592;1275;22423;-59
2022/01/06 03:36:14;;;;;;;11.20;8.10;;;;;;;1.34;76.93;96813.73;109604;1275;22522;-59
2022/01/06 03:38:42;;;;;;;10.30;7.90;;;;;;;1.34;76.84;96821.95;109577;1275;22407;-58
2022/01/06 03:41:10;;;;;;;10.30;7.40;;;;;;;1.35;76.87;96830.19;109568;1275;22585;-60
2022/01/06 03:43:38;;;;;;;11.50;8.20;;;;;;;1.40;76.84;96823.44;109595;1276;23155;-59
2022/01/06 03:46:06;;;;;;;10.70;8.40;;;;;;;1.43;76.89;96822.11;109585;1275;22568;-59
2022/01/06 03:48:34;;;;;;;10.20;7.80;;;;;;;1.43;76.96;96825.63;109608;1276;22541;-58
2022/01/06 03:51:02;;;;;;;13.70;8.90;;;;;;;1.42;76.87;96822.81;109553;1276;22474;-58
2022/01/06 03:53:30;;;;;;;10.80;8.90;;;;;;;1.41;76.92;96820.90;109607;1275;22435;-59
2022/01/06 03:55:58;;;;;;;9.70;7.80;;;;;;;1.41;77.03;96824.83;109611;1276;22458;-58
2022/01/06 03:58:26;;;;;;;12.00;7.10;;;;;;;1.44;76.93;96823.19;109598;1275;22458;-58
2022/01/06 04:00:54;;;;;;;10.20;7.10;;;;;;;1.47;76.97;96828.06;109600;1274;23244;-59
2022/01/06 04:03:23;;;;;;;11.80;8.30;;;;;;;1.49;76.79;96828.85;109531;1276;22533;-59
2022/01/06 04:05:51;;;;;;;9.00;7.40;;;;;;;1.51;76.92;96827.64;109603;1276;22512;-58
2022/01/06 04:08:20;;;;;;;11.20;8.40;;;;;;;1.51;76.79;96828.27;109595;1275;23295;-58
2022/01/06 04:10:48;;;;;;;9.80;7.40;;;;;;;1.51;77.00;96827.21;109608;1277;22483;-58
2022/01/06 04:13:16;;;;;;;9.80;6.30;;;;;;;1.50;76.70;96830.19;109600;1275;22558;-59
2022/01/06 04:15:45;;;;;;;9.80;6.50;;;;;;;1.49;76.23;96834.27;109596;1275;22428;-59
2022/01/06 04:18:13;;;;;;;8.70;6.30;;;;;;;1.51;76.66;96831.88;109610;1275;22263;-59
2022/01/06 04:20:41;;;;;;;9.00;6.20;;;;;;;1.56;76.45;96836.77;109604;1275;22575;-58
2022/01/06 04:23:09;;;;;;;8.70;6.40;;;;;;;1.60;76.77;96841.02;109593;1276;23143;-59
2022/01/06 04:25:37;;;;;;;9.80;6.50;;;;;;;1.63;76.66;96842.30;109602;1275;22289;-59
2022/01/06 04:28:05;;;;;;;8.70;6.40;;;;;;;1.61;75.98;96845.89;109602;1276;23191;-59
2022/01/06 04:30:34;;;;;;;13.80;8.10;;;;;;;1.60;75.96;96849.72;109590;1276;23004;-59
2022/01/06 04:33:02;;;;;;;9.50;7.10;;;;;;;1.58;76.21;96841.18;109595;1275;22409;-59
2022/01/06 04:35:30;;;;;;;9.40;6.40;;;;;;;1.59;76.32;96844.37;109597;1275;22671;-59
2022/01/06 04:37:58;;;;;;;12.60;7.10;;;;;;;1.62;76.02;96851.36;109605;1275;23255;-59
2022/01/06 04:40:26;;;;;;;9.10;6.20;;;;;;;1.64;75.76;96848.17;109606;1275;22474;-59
2022/01/06 04:42:54;;;;;;;9.90;6.60;;;;;;;1.63;76.01;96844.67;109593;1275;22515;-58
2022/01/06 04:45:23;;;;;;;11.50;7.80;;;;;;;1.63;76.19;96846.80;109603;1275;22453;-59
2022/01/06 04:47:51;;;;;;;11.40;8.00;;;;;;;1.62;76.10;96847.48;109585;1275;22477;-59
2022/01/06 04:50:19;;;;;;;8.70;6.30;;;;;;;1.62;76.11;96852.91;109622;1275;22552;-59
2022/01/06 04:52:47;;;;;;;10.00;7.00;;;;;;;1.63;76.19;96853.39;109602;1276;23222;-59
2022/01/06 04:55:16;;;;;;;10.00;7.00;;;;;;;1.66;76.16;96856.58;109613;1275;23100;-59
2022/01/06 04:57:44;;;;;;;8.90;6.60;;;;;;;1.67;76.04;96858.58;109608;1277;22458;-59
2022/01/06 05:00:12;;;;;;;9.90;6.70;;;;;;;1.66;75.93;96863.20;109590;1276;22530;-58
2022/01/06 05:02:40;;;;;;;10.70;7.00;;;;;;;1.65;75.96;96861.08;109595;1276;22374;-59
2022/01/06 05:05:09;;;;;;;11.00;6.40;;;;;;;1.63;75.80;96864.85;109586;1275;22449;-58
2022/01/06 05:07:37;;;;;;;8.30;6.10;;;;;;;1.64;76.04;96861.30;109590;1276;23157;-59
2022/01/06 05:10:05;;;;;;;11.70;8.50;;;;;;;1.68;75.98;96858.75;109594;1275;22663;-59
2022/01/06 05:12:33;;;;;;;10.90;8.00;;;;;;;1.70;76.05;96859.27;109597;1275;22469;-59
2022/01/06 05:15:01;;;;;;;12.40;7.60;;;;;;;1.69;75.88;96862.20;109570;1275;23352;-59
2022/01/06 05:17:31;;;;;;;11.10;7.40;;;;;;;1.69;76.18;96859.27;109469;1276;23241;-59
2022/01/06 05:19:59;;;;;;;12.80;7.30;;;;;;;1.66;75.78;96859.91;109597;1275;23223;-59
2022/01/06 05:22:28;;;;;;;11.40;7.60;;;;;;;1.64;75.99;96865.43;109580;1276;22419;-57
2022/01/06 05:24:57;;;;;;;10.50;7.10;;;;;;;1.64;76.03;96870.38;109587;1275;22539;-59
2022/01/06 05:27:25;;;;;;;12.40;8.10;;;;;;;1.67;75.96;96868.73;109585;1275;22370;-59
2022/01/06 05:29:53;;;;;;;11.60;8.00;;;;;;;1.69;75.95;96865.39;109578;1275;22546;-59
2022/01/06 05:32:21;;;;;;;9.80;7.70;;;;;;;1.69;76.14;96869.42;109486;1276;22458;-59
2022/01/06 05:34:50;;;;;;;11.00;7.50;;;;;;;1.67;75.87;96871.27;109599;1276;23301;-59
2022/01/06 05:37:18;;;;;;;10.30;7.00;;;;;;;1.66;75.89;96872.60;109582;1275;23350;-59
2022/01/06 05:39:46;;;;;;;10.60;7.00;;;;;;;1.64;75.98;96872.02;109600;1275;22456;-59
2022/01/06 05:42:14;;;;;;;12.70;7.10;;;;;;;1.65;76.06;96874.73;109577;1275;22501;-59
2022/01/06 05:44:42;;;;;;;11.10;7.30;;;;;;;1.67;75.97;96876.21;109591;1275;22192;-59
2022/01/06 05:47:11;;;;;;;10.80;7.50;;;;;;;1.69;76.29;96876.00;109566;1275;22514;-59
2022/01/06 05:49:39;;;;;;;13.20;7.90;;;;;;;1.71;76.40;96876.70;109586;1275;22452;-59
2022/01/06 05:52:07;;;;;;;12.50;7.80;;;;;;;1.71;76.03;96882.33;109583;1275;22529;-59
2022/01/06 05:54:35;;;;;;;13.30;8.30;;;;;;;1.69;75.79;96881.05;109571;1275;22618;-58
2022/01/06 05:57:08;;;;;;;11.80;7.90;;;;;;;1.67;76.13;96885.04;109575;1276;22569;-59
2022/01/06 05:59:36;;;;;;;10.90;7.40;;;;;;;1.67;75.98;96891.63;109594;1275;22591;-58
2022/01/06 06:02:05;;;;;;;12.20;7.80;;;;;;;1.70;76.03;96895.77;109587;1275;22427;-59
2022/01/06 06:04:33;;;;;;;14.90;9.00;;;;;;;1.73;76.10;96898.20;109594;1276;22425;-59
2022/01/06 06:07:02;;;;;;;12.70;8.60;;;;;;;1.73;75.93;96897.89;109595;1275;22541;-59
2022/01/06 06:09:30;;;;;;;11.60;8.00;;;;;;;1.71;75.86;96900.91;109569;1275;22579;-58
2022/01/06 06:11:58;;;;;;;11.20;7.90;;;;;;;1.68;76.11;96901.77;109584;1276;22451;-59
2022/01/06 06:14:26;;;;;;;10.50;8.00;;;;;;;1.67;76.12;96902.40;109602;1275;22562;-58
2022/01/06 06:16:54;;;;;;;11.50;7.70;;;;;;;1.67;76.12;96905.38;109593;1275;22445;-59
2022/01/06 06:19:23;;;;;;;13.80;10.40;;;;;;;1.71;76.20;96902.35;109613;1275;22492;-59
2022/01/06 06:21:51;;;;;;;16.10;11.70;;;;;;;1.73;76.22;96911.86;109596;1275;22609;-59
2022/01/06 06:24:22;;;;;;;14.30;11.40;;;;;;;1.73;76.28;96912.65;109610;1275;22404;-59
2022/01/06 06:26:52;;;;;;;13.00;10.50;;;;;;;1.71;76.27;96916.75;109585;1275;22463;-59
2022/01/06 06:29:21;;;;;;;13.80;10.60;;;;;;;1.69;76.49;96915.25;109595;1276;22415;-58
2022/01/06 06:31:49;;;;;;;10.70;7.90;;;;;;;1.67;76.57;96923.06;109484;1275;22487;-58
2022/01/06 06:34:18;;;;;;;11.10;9.30;;;;;;;1.65;76.43;96925.17;109598;1276;22509;-60
2022/01/06 06:36:46;;;;;;;11.50;9.10;;;;;;;1.66;76.38;96931.98;109582;1275;22502;-59
2022/01/06 06:39:14;;;;;;;11.50;9.10;;;;;;;1.67;76.44;96938.35;109606;1275;22572;-59
2022/01/06 06:41:42;;;;;;;13.00;10.10;;;;;;;1.66;76.54;96940.80;109576;1277;23113;-59
2022/01/06 06:44:11;;;;;;;12.00;9.40;;;;;;;1.66;76.68;96942.86;109589;1275;22251;-59
2022/01/06 06:46:39;;;;;;;10.80;9.10;;;;;;;1.65;76.69;96951.37;109587;1275;22460;-59
2022/01/06 06:49:08;;;;;;;13.10;10.10;;;;;;;1.63;76.63;96956.25;109585;1276;22498;-58
2022/01/06 06:51:36;;;;;;;12.10;8.70;;;;;;;1.64;76.66;96956.46;109605;1275;22467;-59
2022/01/06 06:54:09;;;;;;;11.00;8.40;;;;;;;1.67;76.67;96961.98;109594;1274;22411;-59
2022/01/06 06:56:37;;;;;;;10.40;8.20;;;;;;;1.68;76.80;96970.45;109592;1275;22489;-58
2022/01/06 06:59:04;;;;;;;10.60;8.30;;;;;;;1.69;76.81;96976.17;109605;1276;22508;-60
2022/01/06 07:01:33;;;;;;;16.30;10.20;;;;;;;1.68;76.77;96979.05;109597;1275;22440;-60
2022/01/06 07:04:01;;;;;;;11.80;7.70;;;;;;;1.65;77.06;96976.98;109580;1275;22448;-60
2022/01/06 07:06:29;;;;;;;10.90;8.00;;;;;;;1.65;77.07;96981.90;109619;1275;22482;-59
2022/01/06 07:08:57;;;;;;;12.40;8.50;;;;;;;1.65;76.94;96978.40;109594;1275;22503;-60
2022/01/06 07:11:25;;;;;;;14.80;10.20;;;;;;;1.66;77.14;96981.54;109590;1275;22469;-60
2022/01/06 07:13:53;;;;;;;11.60;9.30;;;;;;;1.64;77.13;96980.04;109610;1275;23220;-59
2022/01/06 07:16:21;;;;;;;14.40;9.50;;;;;;;1.62;77.16;96981.10;109600;1277;22464;-61
2022/01/06 07:18:49;;;;;;;11.80;9.10;;;;;;;1.60;77.35;96988.11;109624;1275;23130;-60
2022/01/06 07:21:17;;;;;;;21.10;15.70;;;;;;;1.60;77.52;96982.43;109611;1275;22452;-59
2022/01/06 07:23:46;;;;;;;12.00;9.80;;;;;;;1.63;77.32;96983.29;109611;1275;23278;-60
2022/01/06 07:26:14;;;;;;;12.30;9.60;;;;;;;1.65;77.36;96982.81;109596;1275;22625;-59
2022/01/06 07:28:42;;;;;;;10.70;9.60;;;;;;;1.64;77.45;96989.87;109610;1274;22476;-60
2022/01/06 07:31:11;;;;;;;13.30;10.80;;;;;;;1.63;77.36;96981.80;109574;1275;22582;-60
2022/01/06 07:33:39;;;;;;;12.50;9.90;;;;;;;1.62;77.50;96983.55;109599;1275;23234;-60
2022/01/06 07:36:07;;;;;;;13.80;10.60;;;;;;;1.63;77.57;96988.80;109580;1275;22598;-60
2022/01/06 07:38:35;;;;;;;15.00;11.20;;;;;;;1.65;77.64;96990.45;109595;1275;23305;-60
2022/01/06 07:41:03;;;;;;;22.50;15.10;;;;;;;1.66;77.64;96989.29;109610;1275;22569;-60
2022/01/06 07:43:31;;;;;;;24.70;15.90;;;;;;;1.65;77.66;96997.84;109615;1275;23177;-60
2022/01/06 07:45:59;;;;;;;17.20;11.10;;;;;;;1.62;77.71;97006.27;109597;1275;23184;-60
2022/01/06 07:48:37;;;;;;;18.20;12.90;;;;;;;1.60;77.95;97003.35;109609;1276;22292;-60
2022/01/06 07:51:05;;;;;;;14.70;11.20;;;;;;;1.56;78.12;97005.41;109598;1275;23187;-60
2022/01/06 07:53:33;;;;;;;17.50;11.60;;;;;;;1.52;78.81;97009.49;109501;1276;23159;-60
2022/01/06 07:56:01;;;;;;;14.00;10.60;;;;;;;1.46;78.71;97013.36;109628;1275;22638;-60
2022/01/06 07:58:29;;;;;;;15.20;10.90;;;;;;;1.36;79.13;97009.50;109610;1275;23141;-60
2022/01/06 08:00:57;;;;;;;13.50;10.30;;;;;;;1.29;79.28;97012.02;109509;1275;23249;-59
2022/01/06 08:03:25;;;;;;;17.10;11.20;;;;;;;1.26;79.19;97015.31;109602;1275;23165;-60
2022/01/06 08:05:53;;;;;;;14.90;10.60;;;;;;;1.23;79.07;97019.92;109595;1275;22359;-60
2022/01/06 08:08:21;;;;;;;12.80;10.80;;;;;;;1.20;80.07;97019.80;109591;1275;23017;-60
2022/01/06 08:10:50;;;;;;;14.40;12.40;;;;;;;1.19;80.19;97018.73;109614;1275;22564;-60
2022/01/06 08:13:18;;;;;;;13.00;10.40;;;;;;;1.17;80.40;97017.50;109605;1275;23155;-59
2022/01/06 08:15:46;;;;;;;14.70;13.00;;;;;;;1.18;80.07;97017.23;109575;1275;22400;-59
2022/01/06 08:18:15;;;;;;;17.10;14.70;;;;;;;1.19;80.15;97019.58;109479;1274;22497;-59
2022/01/06 08:20:43;;;;;;;15.70;13.50;;;;;;;1.18;80.72;97021.17;109617;1275;22541;-60
2022/01/06 08:23:11;;;;;;;15.40;11.50;;;;;;;1.19;80.41;97021.60;109611;1275;22469;-60
2022/01/06 08:25:39;;;;;;;12.40;11.10;;;;;;;1.22;80.52;97022.30;109593;1275;23502;-59
2022/01/06 08:28:07;;;;;;;15.40;11.50;;;;;;;1.27;80.87;97023.33;109591;1275;22429;-59
2022/01/06 08:30:36;;;;;;;19.30;12.60;;;;;;;1.32;80.75;97029.25;109604;1275;23210;-59
2022/01/06 08:33:08;;;;;;;15.70;12.00;;;;;;;1.37;80.68;97028.02;109593;1275;22429;-60
2022/01/06 08:35:42;;;;;;;21.50;15.00;;;;;;;1.39;80.81;97029.90;109602;1275;22446;-59
2022/01/06 08:38:16;;;;;;;21.80;14.70;;;;;;;1.42;80.58;97037.81;109599;1275;22428;-60
2022/01/06 08:40:55;;;;;;;22.50;13.90;;;;;;;1.44;81.02;97036.98;109624;1275;23236;-61
2022/01/06 08:43:55;;;;;;;18.50;13.20;;;;;;;1.51;80.53;97036.52;109598;1276;22447;-60
2022/01/06 08:46:25;;;;;;;18.40;13.30;;;;;;;1.55;80.45;97047.09;109618;1275;22427;-60
2022/01/06 08:48:58;;;;;;;16.40;12.00;;;;;;;1.56;80.52;97050.14;109577;1275;22440;-60
2022/01/06 08:51:26;;;;;;;17.50;13.00;;;;;;;1.58;80.50;97056.34;109591;1275;23191;-59
2022/01/06 08:53:54;;;;;;;14.70;11.10;;;;;;;1.64;80.67;97055.24;109582;1275;22570;-60
2022/01/06 08:56:24;;;;;;;16.90;12.20;;;;;;;1.70;80.45;97061.27;109583;1275;22474;-59
2022/01/06 08:58:58;;;;;;;15.60;11.50;;;;;;;1.71;80.50;97061.75;109579;1275;22435;-59
2022/01/06 09:01:32;;;;;;;16.10;11.50;;;;;;;1.74;80.28;97064.89;109589;1275;22586;-60
2022/01/06 09:04:02;;;;;;;16.20;12.50;;;;;;;1.74;80.30;97068.88;109602;1275;22412;-60
2022/01/06 09:06:35;;;;;;;15.80;10.90;;;;;;;1.75;80.47;97064.41;109589;1275;22431;-58
2022/01/06 09:09:03;;;;;;;19.30;15.20;;;;;;;1.80;80.27;97054.34;109590;1275;22532;-59
2022/01/06 09:11:32;;;;;;;18.50;12.60;;;;;;;1.84;80.43;97057.67;109599;1276;22550;-60
2022/01/06 09:14:05;;;;;;;17.80;12.90;;;;;;;1.89;80.21;97058.39;109591;1275;22538;-59
2022/01/06 09:16:39;;;;;;;15.20;11.10;;;;;;;1.93;80.05;97054.84;109605;1275;22410;-59
2022/01/06 09:19:13;;;;;;;18.20;11.70;;;;;;;1.99;80.00;97064.67;109604;1275;23192;-59
2022/01/06 09:21:51;;;;;;;17.20;12.10;;;;;;;2.03;79.77;97068.98;109577;1275;22668;-59
2022/01/06 09:24:54;;;;;;;15.20;10.90;;;;;;;2.08;79.87;97071.64;109593;1276;22475;-59
2022/01/06 09:27:30;;;;;;;19.10;14.50;;;;;;;2.09;79.84;97069.53;109594;1275;22443;-60
2022/01/06 09:30:03;;;;;;;15.70;9.90;;;;;;;2.12;79.80;97071.48;109610;1275;22495;-59
2022/01/06 09:32:36;;;;;;;12.20;9.50;;;;;;;2.13;79.25;97070.75;109601;1275;22447;-59
2022/01/06 09:35:07;;;;;;;14.70;11.50;;;;;;;2.17;79.50;97068.46;109593;1276;22538;-59
2022/01/06 09:37:40;;;;;;;13.00;10.80;;;;;;;2.21;79.42;97072.36;109474;1276;22568;-58
2022/01/06 09:40:14;;;;;;;14.90;10.60;;;;;;;2.22;79.30;97073.52;109588;1275;22373;-60
2022/01/06 09:42:47;;;;;;;16.60;10.80;;;;;;;2.19;78.49;97081.23;109610;1275;23109;-59
2022/01/06 09:45:25;;;;;;;18.00;12.60;;;;;;;2.19;78.93;97075.75;109527;1274;22443;-60
2022/01/06 09:47:55;;;;;;;15.30;13.10;;;;;;;2.20;79.14;97080.20;109485;1275;23172;-60
2022/01/06 09:50:33;;;;;;;20.00;16.10;;;;;;;2.17;78.82;97084.94;109606;1275;22498;-60
2022/01/06 09:53:23;;;;;;;17.50;14.90;;;;;;;2.09;79.11;97089.02;109588;1275;22422;-59
2022/01/06 09:55:55;;;;;;;22.20;18.10;;;;;;;2.05;79.29;97092.38;109589;1275;22982;-59
2022/01/06 09:58:29;;;;;;;19.50;16.90;;;;;;;2.01;79.33;97094.54;109594;1275;22473;-59
2022/01/06 10:00:58;;;;;;;15.90;12.10;;;;;;;1.93;79.14;97095.95;109601;1275;22487;-60
2022/01/06 10:03:39;;;;;;;11.80;10.10;;;;;;;1.83;78.86;97100.39;109372;1277;22578;-60
2022/01/06 10:06:14;;;;;;;12.50;11.20;;;;;;;1.75;78.95;97105.38;109592;1275;22497;-59
2022/01/06 10:08:53;;;;;;;9.50;8.30;;;;;;;1.68;78.39;97110.60;109594;1275;22396;-59
2022/01/06 10:11:25;;;;;;;8.90;8.00;;;;;;;1.66;78.40;97103.95;109598;1275;22550;-59
2022/01/06 10:14:04;;;;;;;9.70;8.70;;;;;;;1.65;78.50;97107.34;109578;1275;22435;-60
2022/01/06 10:16:32;;;;;;;11.90;9.30;;;;;;;1.63;78.33;97104.75;109611;1275;22435;-59
2022/01/06 10:19:11;;;;;;;10.90;9.70;;;;;;;1.63;78.31;97119.39;109586;1276;23197;-60
2022/01/06 10:21:42;;;;;;;9.20;8.00;;;;;;;1.65;78.55;97124.34;109611;1275;22561;-59
2022/01/06 10:24:20;;;;;;;9.80;8.60;;;;;;;1.62;78.47;97117.96;109539;1276;22470;-59
2022/01/06 10:26:54;;;;;;;16.20;14.50;;;;;;;1.60;78.87;97114.98;109589;1275;22491;-59
2022/01/06 10:29:29;;;;;;;12.20;9.70;;;;;;;1.58;78.59;97132.77;109557;1276;22366;-59
2022/01/06 10:32:08;;;;;;;;;;;;;;;1.62;78.86;97141.98;109586;1275;22553;-60
2022/01/06 10:34:39;;;;;;;10.00;7.50;;;;;;;1.47;78.08;97163.04;109591;1275;22312;-59
2022/01/06 10:37:23;;;;;;;8.60;7.20;;;;;;;1.06;77.95;97153.23;109590;1276;22430;-59
2022/01/06 10:39:58;;;;;;;11.20;9.30;;;;;;;0.76;78.59;97155.67;109590;1275;22477;-59
2022/01/06 10:42:33;;;;;;;11.90;10.70;;;;;;;0.56;78.98;97152.22;109588;1276;23090;-59
2022/01/06 10:45:29;;;;;;;12.50;11.20;;;;;;;0.40;79.76;97177.64;109503;1276;22446;-60
2022/01/06 10:48:23;;;;;;;11.80;10.30;;;;;;;0.35;79.56;97165.34;109566;1276;22500;-60
2022/01/06 10:51:00;;;;;;;14.50;13.00;;;;;;;0.37;79.49;97167.16;109554;1275;23216;-60
2022/01/06 10:53:29;;;;;;;12.10;10.30;;;;;;;0.42;79.27;97168.12;109451;1276;23300;-61
2022/01/06 10:55:57;;;;;;;11.80;10.60;;;;;;;0.45;78.54;97169.36;109572;1276;22582;-59
2022/01/06 10:58:26;;;;;;;11.20;10.00;;;;;;;0.50;77.80;97174.23;109580;1275;22608;-59
2022/01/06 11:00:56;;;;;;;12.30;10.70;;;;;;;0.59;77.82;97170.71;109539;1276;22498;-58
2022/01/06 11:03:28;;;;;;;12.40;9.60;;;;;;;0.72;77.65;97167.09;109418;1276;22607;-60
2022/01/06 11:05:59;;;;;;;13.10;11.30;;;;;;;0.82;77.07;97167.45;109570;1274;22490;-59
2022/01/06 11:08:30;;;;;;;13.80;12.20;;;;;;;0.88;76.56;97173.80;109528;1275;22550;-60
2022/01/06 11:13:45;;;;;;;12.00;10.70;;;;;;;0.91;75.59;97173.14;109440;1275;138292;-57
2022/01/06 11:16:15;;;;;;;11.00;9.10;;;;;;;0.94;75.86;97183.13;109579;1275;22395;-59
2022/01/06 11:18:55;;;;;;;11.80;9.60;;;;;;;0.92;75.07;97178.18;109603;1275;23079;-59
2022/01/06 11:21:57;;;;;;;10.40;9.10;;;;;;;0.91;75.68;97183.91;109592;1275;22413;-59
2022/01/06 11:24:28;;;;;;;11.70;9.30;;;;;;;0.86;75.54;97182.11;109498;1277;22440;-60
2022/01/06 11:27:05;;;;;;;13.00;11.50;;;;;;;0.86;75.87;97187.95;109585;1275;22459;-60
2022/01/06 11:29:36;;;;;;;13.70;11.90;;;;;;;0.85;75.79;97191.08;109580;1276;22504;-60
2022/01/06 11:32:20;;;;;;;10.10;8.80;;;;;;;0.83;75.42;97194.83;109572;1275;22504;-59
2022/01/06 11:35:04;;;;;;;9.80;8.80;;;;;;;0.76;73.74;97205.75;109603;1275;23214;-58
2022/01/06 11:37:51;;;;;;;10.30;8.60;;;;;;;0.64;73.19;97206.49;109611;1275;22452;-59
2022/01/06 11:40:32;;;;;;;12.30;10.50;;;;;;;0.58;73.78;97213.33;109594;1275;22463;-61
2022/01/06 11:43:00;;;;;;;13.10;10.10;;;;;;;0.61;74.18;97218.91;109603;1274;22549;-60
2022/01/06 11:45:28;;;;;;;13.40;10.80;;;;;;;0.69;73.91;97228.27;109599;1275;22442;-60
2022/01/06 11:48:05;;;;;;;12.50;10.80;;;;;;;0.80;73.81;97228.43;109595;1276;22675;-60
2022/01/06 11:50:41;;;;;;;11.70;9.40;;;;;;;0.91;73.28;97230.17;109487;1276;22555;-59